Time;durP1;ratioP1;P1;durP2;ratioP2;P2;SDS_P1;SDS_P2;PMS_P1;PMS_P2;Temp;Humidity;BMP_temperature;BMP_pressure;BME280_temperature;BME280_humidity;BME280_pressure;Samples;Min_cycle;Max_cycle;Signal;HPM_P1;HPM_P2
2022/03/12 00:01:21;;;;;;;3.83;2.30;;;23.60;27.50;;;;;;5065187;28;20039;-49
2022/03/12 00:03:47;;;;;;;3.75;2.17;;;23.60;27.50;;;;;;5066122;28;20028;-49
2022/03/12 00:06:15;;;;;;;3.88;2.25;;;23.60;27.40;;;;;;5065260;28;20024;-50
2022/03/12 00:08:43;;;;;;;4.32;2.67;;;23.60;27.40;;;;;;5064743;28;20029;-49
2022/03/12 00:11:21;;;;;;;4.15;2.33;;;23.60;27.40;;;;;;5064378;28;20020;-49
2022/03/12 00:13:48;;;;;;;3.83;2.38;;;23.50;27.40;;;;;;5065623;28;20040;-50
2022/03/12 00:16:18;;;;;;;3.25;2.00;;;23.50;27.40;;;;;;5066334;28;20025;-50
2022/03/12 00:18:48;;;;;;;4.53;2.40;;;23.50;27.40;;;;;;5065169;28;20028;-50
2022/03/12 00:21:14;;;;;;;3.88;2.20;;;23.50;27.40;;;;;;5065367;28;20093;-51
2022/03/12 00:23:48;;;;;;;3.80;2.13;;;23.50;27.40;;;;;;5065523;28;20024;-50
2022/03/12 00:26:15;;;;;;;3.80;2.30;;;23.50;27.40;;;;;;5065836;28;20093;-50
2022/03/12 00:28:43;;;;;;;3.78;1.98;;;23.40;27.40;;;;;;5063682;28;20029;-50
2022/03/12 00:31:10;;;;;;;3.60;2.10;;;23.40;27.30;;;;;;5065417;28;20113;-50
2022/03/12 00:33:36;;;;;;;3.70;2.40;;;23.40;27.40;;;;;;5047522;28;20053;-49
2022/03/12 00:36:02;;;;;;;3.17;2.00;;;23.40;27.40;;;;;;5065226;28;20372;-50
2022/03/12 00:38:28;;;;;;;3.55;2.20;;;23.40;27.40;;;;;;5064693;28;20043;-52
2022/03/12 00:40:55;;;;;;;3.30;2.03;;;23.40;27.30;;;;;;5064610;28;20688;-49
2022/03/12 00:43:21;;;;;;;4.10;2.42;;;23.30;27.40;;;;;;5064361;28;20025;-49
2022/03/12 00:45:47;;;;;;;3.55;2.22;;;23.30;27.40;;;;;;5064784;28;20035;-50
2022/03/12 00:48:14;;;;;;;3.47;2.10;;;23.30;27.40;;;;;;5064903;28;20030;-49
2022/03/12 00:50:40;;;;;;;3.83;2.25;;;23.30;27.40;;;;;;5064483;28;20066;-50
2022/03/12 00:53:05;;;;;;;3.78;2.30;;;23.30;27.40;;;;;;5064537;28;20020;-50
2022/03/12 00:55:32;;;;;;;3.58;2.08;;;23.30;27.40;;;;;;5065066;28;20047;-51
2022/03/12 00:57:58;;;;;;;4.00;2.53;;;23.20;27.20;;;;;;5064326;28;20029;-50
2022/03/12 01:00:25;;;;;;;4.00;2.35;;;23.30;27.30;;;;;;5064025;28;20453;-49
2022/03/12 01:02:51;;;;;;;3.55;2.10;;;23.30;27.40;;;;;;5064465;28;20703;-50
2022/03/12 01:05:21;;;;;;;3.20;1.98;;;23.30;27.30;;;;;;5064484;28;20036;-49
2022/03/12 01:07:48;;;;;;;4.40;2.40;;;23.20;27.30;;;;;;5064293;28;20052;-50
2022/03/12 01:10:14;;;;;;;4.03;2.05;;;23.20;27.20;;;;;;5063897;28;20524;-49
2022/03/12 01:12:43;;;;;;;3.55;2.15;;;23.20;27.30;;;;;;5064375;28;20119;-49
2022/03/12 01:15:10;;;;;;;3.60;2.08;;;23.20;27.30;;;;;;5064267;28;20086;-50
2022/03/12 01:17:35;;;;;;;3.28;2.25;;;23.20;27.30;;;;;;5064546;28;20104;-50
2022/03/12 01:20:08;;;;;;;3.17;1.85;;;23.20;27.20;;;;;;5063619;28;20111;-50
2022/03/12 01:22:35;;;;;;;3.05;1.73;;;23.10;27.30;;;;;;5064205;28;20608;-49
2022/03/12 01:25:03;;;;;;;3.42;2.00;;;23.20;27.30;;;;;;5063832;28;20634;-49
2022/03/12 01:27:29;;;;;;;3.28;1.80;;;23.10;27.20;;;;;;5064302;28;20047;-50
2022/03/12 01:29:55;;;;;;;3.58;2.03;;;23.10;27.30;;;;;;5064165;28;20029;-49
2022/03/12 01:32:21;;;;;;;3.83;1.85;;;23.10;27.30;;;;;;5063623;28;20036;-50
2022/03/12 01:34:47;;;;;;;3.88;2.40;;;23.10;27.30;;;;;;5064467;28;20024;-49
2022/03/12 01:37:19;;;;;;;3.75;2.40;;;23.10;27.30;;;;;;5063544;28;20033;-49
2022/03/12 01:39:48;;;;;;;4.00;2.55;;;23.10;27.30;;;;;;5063873;28;20036;-50
2022/03/12 01:42:15;;;;;;;3.83;2.40;;;23.00;27.20;;;;;;5063786;28;20466;-49
2022/03/12 01:44:41;;;;;;;3.40;2.10;;;23.00;27.20;;;;;;5064318;28;20447;-50
2022/03/12 01:47:09;;;;;;;3.22;2.00;;;23.00;27.20;;;;;;5064282;28;20683;-49
2022/03/12 01:49:35;;;;;;;3.72;2.03;;;23.00;27.20;;;;;;5062815;28;20111;-50
2022/03/12 01:52:01;;;;;;;3.70;2.10;;;23.00;27.20;;;;;;5064377;28;20687;-50
2022/03/12 01:54:28;;;;;;;3.53;2.22;;;23.00;27.20;;;;;;5042553;28;20035;-49
2022/03/12 01:56:56;;;;;;;3.30;1.98;;;23.00;27.20;;;;;;5064118;28;20029;-50
2022/03/12 01:59:24;;;;;;;3.45;2.15;;;23.00;27.20;;;;;;5063576;28;20042;-50
2022/03/12 02:01:54;;;;;;;3.72;2.17;;;23.00;27.20;;;;;;5064215;28;20039;-49
2022/03/12 02:04:23;;;;;;;4.13;2.40;;;23.00;27.20;;;;;;5062690;28;20035;-49
2022/03/12 02:06:50;;;;;;;3.28;2.05;;;23.00;27.20;;;;;;5063566;28;20090;-49
2022/03/12 02:09:17;;;;;;;3.78;2.50;;;23.00;27.20;;;;;;5063803;28;20059;-49
2022/03/12 02:11:49;;;;;;;3.17;1.95;;;23.00;27.20;;;;;;5062082;28;20774;-49
2022/03/12 02:14:17;;;;;;;3.70;2.28;;;22.90;27.20;;;;;;5064560;28;20128;-49
2022/03/12 02:16:55;;;;;;;3.10;2.00;;;22.90;27.20;;;;;;5064542;28;20028;-50
2022/03/12 02:19:25;;;;;;;4.05;2.25;;;22.90;27.30;;;;;;5063297;28;20028;-50
2022/03/12 02:22:03;;;;;;;3.67;2.30;;;22.90;27.30;;;;;;5062148;28;20025;-49
2022/03/12 02:24:31;;;;;;;3.60;2.17;;;22.90;27.30;;;;;;5063805;28;20107;-49
2022/03/12 02:27:00;;;;;;;3.65;2.03;;;22.90;27.30;;;;;;5063626;28;20111;-49
2022/03/12 02:29:26;;;;;;;3.95;2.45;;;22.90;27.30;;;;;;5063416;28;20032;-49
2022/03/12 02:32:02;;;;;;;3.50;2.15;;;22.80;27.20;;;;;;5061451;28;20031;-50
2022/03/12 02:34:38;;;;;;;3.67;2.28;;;22.80;27.10;;;;;;5063455;28;20082;-50
2022/03/12 02:37:05;;;;;;;3.80;2.22;;;22.80;27.10;;;;;;5063690;28;20032;-50
2022/03/12 02:39:34;;;;;;;3.53;2.35;;;22.80;27.20;;;;;;5063175;28;20060;-49
2022/03/12 02:42:00;;;;;;;4.15;2.40;;;22.80;27.20;;;;;;5063985;28;20037;-49
2022/03/12 02:44:28;;;;;;;3.88;2.40;;;22.80;27.10;;;;;;5065298;28;20028;-49
2022/03/12 02:47:14;;;;;;;4.32;2.67;;;22.80;27.10;;;;;;5067283;28;20025;-49
2022/03/12 02:49:52;;;;;;;4.10;2.13;;;22.80;27.20;;;;;;5065420;28;20105;-49
2022/03/12 02:52:19;;;;;;;3.38;2.13;;;22.80;27.10;;;;;;5067075;28;20025;-49
2022/03/12 02:54:46;;;;;;;3.67;2.30;;;22.80;27.20;;;;;;5066590;28;20032;-49
2022/03/12 02:57:12;;;;;;;4.03;2.63;;;22.80;27.20;;;;;;5067077;28;20444;-50
2022/03/12 02:59:40;;;;;;;3.92;2.33;;;22.80;27.20;;;;;;5066851;28;20032;-50
2022/03/12 03:02:10;;;;;;;4.22;2.30;;;22.70;27.20;;;;;;5066465;28;20108;-50
2022/03/12 03:04:38;;;;;;;4.18;2.58;;;22.70;27.20;;;;;;5062080;28;20033;-48
2022/03/12 03:07:06;;;;;;;4.53;2.60;;;22.70;27.20;;;;;;5059066;28;20670;-50
2022/03/12 03:09:32;;;;;;;3.67;2.38;;;22.70;27.20;;;;;;5061977;28;20046;-49
2022/03/12 03:12:02;;;;;;;4.13;2.45;;;22.70;27.20;;;;;;5066194;28;20044;-48
2022/03/12 03:14:28;;;;;;;4.00;2.58;;;22.70;27.20;;;;;;5066565;28;20051;-49
2022/03/12 03:16:55;;;;;;;3.70;2.40;;;22.70;27.20;;;;;;5065918;28;20475;-48
2022/03/12 03:19:26;;;;;;;2.88;1.67;;;22.70;27.20;;;;;;5066241;28;20021;-49
2022/03/12 03:21:53;;;;;;;3.75;2.35;;;22.70;27.20;;;;;;5067056;28;20032;-49
2022/03/12 03:24:21;;;;;;;4.10;2.33;;;22.60;27.10;;;;;;5065782;28;20032;-49
2022/03/12 03:26:58;;;;;;;3.33;2.22;;;22.60;27.20;;;;;;5067036;28;20396;-49
2022/03/12 03:29:32;;;;;;;3.90;2.60;;;22.60;27.10;;;;;;5065985;28;20571;-49
2022/03/12 03:32:02;;;;;;;3.63;2.22;;;22.60;27.10;;;;;;5066855;28;20032;-50
2022/03/12 03:34:30;;;;;;;3.30;1.90;;;22.60;27.10;;;;;;5066063;28;20090;-49
2022/03/12 03:36:56;;;;;;;3.80;2.35;;;22.60;27.20;;;;;;5066705;28;20093;-49
2022/03/12 03:39:22;;;;;;;4.30;2.53;;;22.60;27.10;;;;;;5065569;28;20033;-49
2022/03/12 03:41:48;;;;;;;4.45;2.42;;;22.60;27.10;;;;;;5063580;28;20107;-49
2022/03/12 03:44:19;;;;;;;3.75;2.13;;;22.60;27.10;;;;;;5065999;28;20107;-49
2022/03/12 03:46:44;;;;;;;3.70;2.28;;;22.60;27.20;;;;;;5065861;28;20043;-49
2022/03/12 03:49:10;;;;;;;4.13;2.47;;;22.60;27.20;;;;;;5065595;28;20025;-49
2022/03/12 03:51:42;;;;;;;3.45;2.40;;;22.60;27.20;;;;;;5065953;28;20028;-48
2022/03/12 03:54:09;;;;;;;3.47;2.28;;;22.60;27.20;;;;;;5066129;28;20032;-49
2022/03/12 03:56:37;;;;;;;3.92;2.60;;;22.50;27.20;;;;;;5064557;28;20055;-50
2022/03/12 03:59:04;;;;;;;3.58;2.28;;;22.50;27.20;;;;;;5065893;28;20024;-50
2022/03/12 04:01:30;;;;;;;3.80;2.60;;;22.50;27.20;;;;;;5065935;28;20055;-50
2022/03/12 04:03:57;;;;;;;5.72;2.72;;;22.50;27.20;;;;;;5066313;28;20702;-50
2022/03/12 04:06:27;;;;;;;3.78;2.38;;;22.50;27.20;;;;;;5065803;28;20040;-50
2022/03/12 04:08:54;;;;;;;3.70;2.22;;;22.50;27.20;;;;;;5065267;28;20112;-50
2022/03/12 04:11:24;;;;;;;3.20;2.10;;;22.50;27.20;;;;;;5064375;28;20068;-48
2022/03/12 04:13:52;;;;;;;4.30;2.35;;;22.50;27.20;;;;;;5065969;28;20032;-49
2022/03/12 04:16:19;;;;;;;3.40;2.13;;;22.40;27.10;;;;;;5064646;28;20438;-50
2022/03/12 04:18:46;;;;;;;3.95;2.60;;;22.50;27.20;;;;;;5064957;28;20557;-50
2022/03/12 04:21:17;;;;;;;3.55;2.30;;;22.40;27.10;;;;;;5065350;28;20107;-51
2022/03/12 04:23:44;;;;;;;4.38;2.75;;;22.40;27.10;;;;;;5065233;28;20046;-50
2022/03/12 04:26:10;;;;;;;3.45;2.08;;;22.40;27.10;;;;;;5065461;28;20127;-50
2022/03/12 04:28:37;;;;;;;4.13;2.55;;;22.40;27.10;;;;;;5065662;28;20031;-51
2022/03/12 04:31:05;;;;;;;4.07;2.55;;;22.40;27.10;;;;;;5063494;28;20070;-50
2022/03/12 04:33:31;;;;;;;3.90;2.72;;;22.40;27.10;;;;;;5065408;28;20025;-50
2022/03/12 04:35:59;;;;;;;4.70;2.90;;;22.40;27.10;;;;;;5065395;28;20029;-49
2022/03/12 04:38:26;;;;;;;4.97;2.40;;;22.40;27.10;;;;;;5065319;28;20027;-50
2022/03/12 04:40:55;;;;;;;4.57;2.67;;;22.40;27.10;;;;;;5064757;28;20439;-50
2022/03/12 04:43:25;;;;;;;4.78;2.75;;;22.40;27.10;;;;;;5064386;28;20451;-49
2022/03/12 04:45:51;;;;;;;3.65;2.33;;;22.40;27.10;;;;;;5065176;28;20032;-49
2022/03/12 04:48:21;;;;;;;3.80;2.25;;;22.30;27.10;;;;;;5062823;28;20025;-49
2022/03/12 04:50:48;;;;;;;5.13;2.97;;;22.30;27.10;;;;;;5064690;28;20021;-48
2022/03/12 04:53:15;;;;;;;4.68;2.80;;;22.30;27.10;;;;;;5064596;28;20686;-55
2022/03/12 04:55:41;;;;;;;4.07;2.45;;;22.30;27.10;;;;;;5065157;28;20041;-50
2022/03/12 04:58:07;;;;;;;4.03;2.58;;;22.30;27.00;;;;;;5064886;28;20025;-49
2022/03/12 05:00:38;;;;;;;4.45;2.83;;;22.30;27.00;;;;;;5064697;28;20029;-50
2022/03/12 05:03:11;;;;;;;3.88;2.20;;;22.30;27.00;;;;;;5064051;28;20024;-50
2022/03/12 05:05:40;;;;;;;3.88;2.55;;;22.30;27.00;;;;;;5064287;28;20035;-50
2022/03/12 05:08:11;;;;;;;4.38;2.20;;;22.30;27.00;;;;;;5063882;28;20024;-49
2022/03/12 05:10:37;;;;;;;4.82;2.53;;;22.30;27.00;;;;;;5063870;28;20040;-49
2022/03/12 05:13:04;;;;;;;3.95;2.40;;;22.30;27.00;;;;;;5064060;28;20021;-49
2022/03/12 05:15:37;;;;;;;4.13;2.35;;;22.20;26.90;;;;;;5064045;28;20564;-50
2022/03/12 05:18:08;;;;;;;4.13;2.53;;;22.30;27.00;;;;;;5064695;28;20350;-49
2022/03/12 05:20:36;;;;;;;4.05;2.70;;;22.20;26.90;;;;;;5064102;28;20427;-50
2022/03/12 05:23:04;;;;;;;3.95;2.65;;;22.20;26.90;;;;;;5064288;28;20028;-50
2022/03/12 05:25:30;;;;;;;4.13;2.60;;;22.20;27.00;;;;;;5064638;28;20051;-49
2022/03/12 05:27:56;;;;;;;4.13;2.70;;;22.20;27.00;;;;;;5063621;28;20083;-49
2022/03/12 05:30:22;;;;;;;3.50;2.22;;;22.20;27.00;;;;;;5062781;28;20547;-50
2022/03/12 05:32:49;;;;;;;3.85;2.50;;;22.20;27.00;;;;;;5064539;28;20120;-49
2022/03/12 05:35:17;;;;;;;3.83;2.40;;;22.20;27.00;;;;;;5064639;28;20028;-49
2022/03/12 05:37:45;;;;;;;3.78;2.38;;;22.20;27.00;;;;;;5062287;28;20388;-50
2022/03/12 05:40:15;;;;;;;3.85;2.38;;;22.20;27.00;;;;;;5064377;28;20033;-50
2022/03/12 05:42:43;;;;;;;3.97;2.30;;;22.20;27.00;;;;;;5063564;28;20078;-49
2022/03/12 05:45:09;;;;;;;3.83;2.50;;;22.10;27.00;;;;;;5063467;28;20025;-50
2022/03/12 05:47:42;;;;;;;3.97;2.45;;;22.10;27.00;;;;;;5064069;28;20032;-50
2022/03/12 05:50:09;;;;;;;3.13;1.90;;;22.20;27.00;;;;;;5063654;28;20029;-49
2022/03/12 05:52:47;;;;;;;3.53;2.25;;;22.10;27.00;;;;;;5063513;28;20028;-49
2022/03/12 05:55:14;;;;;;;3.50;2.13;;;22.10;27.00;;;;;;5063689;28;20107;-50
2022/03/12 05:57:41;;;;;;;3.65;2.00;;;22.10;27.00;;;;;;5064112;28;20025;-49
2022/03/12 06:00:11;;;;;;;3.70;2.20;;;22.10;27.00;;;;;;5061781;28;20165;-50
2022/03/12 06:02:55;;;;;;;3.40;2.25;;;22.10;27.00;;;;;;5064038;28;20032;-49
2022/03/12 06:05:24;;;;;;;3.78;2.30;;;22.10;27.00;;;;;;5063212;28;20033;-50
2022/03/12 06:07:53;;;;;;;3.90;2.70;;;22.10;27.00;;;;;;5061945;28;20507;-50
2022/03/12 06:10:23;;;;;;;3.80;2.20;;;22.10;27.00;;;;;;5060673;28;20036;-51
2022/03/12 06:12:51;;;;;;;3.80;2.10;;;22.10;27.10;;;;;;5059819;28;20107;-50
2022/03/12 06:15:18;;;;;;;3.58;2.25;;;22.10;27.10;;;;;;5061429;28;20032;-50
2022/03/12 06:17:45;;;;;;;3.47;2.20;;;22.10;27.00;;;;;;5062563;28;20025;-51
2022/03/12 06:20:12;;;;;;;4.00;2.10;;;22.10;27.30;;;;;;5065264;28;20033;-51
2022/03/12 06:22:38;;;;;;;3.60;2.15;;;22.10;27.60;;;;;;5066028;28;20115;-51
2022/03/12 06:25:09;;;;;;;3.58;2.30;;;22.10;27.80;;;;;;5065271;28;20036;-51
2022/03/12 06:27:35;;;;;;;3.63;1.92;;;22.10;27.90;;;;;;5066702;28;20055;-51
2022/03/12 06:30:08;;;;;;;4.13;2.53;;;22.10;28.00;;;;;;5065135;28;21750;-51
2022/03/12 06:32:36;;;;;;;4.20;2.38;;;22.10;28.00;;;;;;5065920;28;20546;-50
2022/03/12 06:35:02;;;;;;;4.63;2.92;;;22.20;27.90;;;;;;5066696;28;20031;-50
2022/03/12 06:37:28;;;;;;;3.83;2.33;;;22.20;28.00;;;;;;5066605;28;20025;-52
2022/03/12 06:39:55;;;;;;;4.68;2.20;;;22.30;28.10;;;;;;5065484;28;20020;-50
2022/03/12 06:42:24;;;;;;;4.15;2.05;;;22.30;28.10;;;;;;5064520;28;20028;-50
2022/03/12 06:44:53;;;;;;;7.20;2.60;;;22.40;28.30;;;;;;5065752;28;20028;-50
2022/03/12 06:47:20;;;;;;;4.03;2.10;;;22.40;28.30;;;;;;5056316;28;20870;-50
2022/03/12 06:49:46;;;;;;;4.05;2.30;;;22.50;28.50;;;;;;5062584;28;20064;-50
2022/03/12 06:52:12;;;;;;;4.10;2.35;;;22.60;28.50;;;;;;5063627;28;20106;-51
2022/03/12 06:54:38;;;;;;;4.47;2.15;;;22.60;28.50;;;;;;5064732;28;20074;-50
2022/03/12 06:57:04;;;;;;;4.57;2.40;;;22.70;28.40;;;;;;5063520;28;20647;-50
2022/03/12 06:59:31;;;;;;;3.22;1.80;;;22.80;28.20;;;;;;5066122;28;20021;-50
2022/03/12 07:01:57;;;;;;;3.63;2.38;;;22.90;28.20;;;;;;5064723;28;20048;-50
2022/03/12 07:04:23;;;;;;;3.85;2.33;;;23.00;28.00;;;;;;5065813;28;20016;-50
2022/03/12 07:06:50;;;;;;;3.20;2.00;;;23.00;27.90;;;;;;5065391;28;20027;-50
2022/03/12 07:09:16;;;;;;;3.40;2.00;;;23.10;27.90;;;;;;5051029;28;20039;-50
2022/03/12 07:11:44;;;;;;;4.20;2.20;;;23.20;27.70;;;;;;5045836;28;20036;-50
2022/03/12 07:14:10;;;;;;;3.33;2.08;;;23.20;27.70;;;;;;5057005;28;20092;-49
2022/03/12 07:16:37;;;;;;;3.70;2.10;;;23.30;27.70;;;;;;5061296;28;20036;-51
2022/03/12 07:19:02;;;;;;;4.25;2.25;;;23.40;27.60;;;;;;5057893;28;20036;-50
2022/03/12 07:21:29;;;;;;;3.72;2.20;;;23.50;27.60;;;;;;5057297;28;20029;-50
2022/03/12 07:23:56;;;;;;;3.80;2.20;;;23.50;27.40;;;;;;5064531;28;20039;-50
2022/03/12 07:26:22;;;;;;;3.45;2.05;;;23.60;27.40;;;;;;5064094;28;20048;-50
2022/03/12 07:28:49;;;;;;;4.05;1.80;;;23.60;27.30;;;;;;5065069;28;20069;-50
2022/03/12 07:31:16;;;;;;;3.92;2.20;;;23.70;27.20;;;;;;5064315;28;20029;-50
2022/03/12 07:33:44;;;;;;;3.90;2.22;;;23.80;27.20;;;;;;5065697;28;20056;-50
2022/03/12 07:36:11;;;;;;;5.28;2.40;;;23.80;27.10;;;;;;5065323;28;20029;-50
2022/03/12 07:38:37;;;;;;;6.88;2.40;;;23.90;27.10;;;;;;5061357;28;20082;-51
2022/03/12 07:41:03;;;;;;;3.75;2.03;;;24.00;27.00;;;;;;5065048;28;20041;-50
2022/03/12 07:43:29;;;;;;;4.00;2.10;;;24.00;26.90;;;;;;5063459;28;20103;-50
2022/03/12 07:45:56;;;;;;;3.45;2.10;;;24.10;26.90;;;;;;5065288;28;20111;-50
2022/03/12 07:48:22;;;;;;;3.95;2.22;;;24.20;26.80;;;;;;5052532;28;20044;-50
2022/03/12 07:50:48;;;;;;;4.03;2.22;;;24.20;26.70;;;;;;5046808;28;20025;-51
2022/03/12 07:53:13;;;;;;;4.07;2.25;;;24.20;26.70;;;;;;5059236;28;20024;-50
2022/03/12 07:55:40;;;;;;;3.60;1.77;;;24.30;26.60;;;;;;5065061;28;20085;-50
2022/03/12 07:58:07;;;;;;;4.32;2.13;;;24.30;26.60;;;;;;5062735;28;20074;-51
2022/03/12 08:00:32;;;;;;;3.30;1.88;;;24.40;26.50;;;;;;5064577;28;20120;-51
2022/03/12 08:02:59;;;;;;;4.25;1.85;;;24.40;26.40;;;;;;5054694;28;20107;-50
2022/03/12 08:05:25;;;;;;;4.00;2.40;;;24.50;26.40;;;;;;5062985;28;20029;-51
2022/03/12 08:07:54;;;;;;;3.75;2.20;;;24.50;26.30;;;;;;5065001;28;20025;-50
2022/03/12 08:10:21;;;;;;;3.20;1.92;;;24.60;26.30;;;;;;5064382;28;20032;-52
2022/03/12 08:12:47;;;;;;;3.33;1.98;;;24.60;26.20;;;;;;5063363;28;20032;-51
2022/03/12 08:15:15;;;;;;;3.80;1.90;;;24.70;26.20;;;;;;5065221;28;20020;-51
2022/03/12 08:17:41;;;;;;;3.85;2.10;;;24.70;26.20;;;;;;5064342;28;20041;-51
2022/03/12 08:20:07;;;;;;;3.78;2.15;;;24.70;26.10;;;;;;5065131;28;20017;-52
2022/03/12 08:22:38;;;;;;;3.70;2.25;;;24.80;26.10;;;;;;5063297;28;20056;-52
2022/03/12 08:25:07;;;;;;;4.07;2.15;;;24.80;26.70;;;;;;5064806;28;20299;-52
2022/03/12 08:27:32;;;;;;;4.03;2.17;;;24.80;25.90;;;;;;5064723;28;20051;-50
2022/03/12 08:29:59;;;;;;;3.63;2.05;;;24.90;26.00;;;;;;5063331;28;20713;-50
2022/03/12 08:32:24;;;;;;;3.95;2.28;;;24.90;25.90;;;;;;5064261;28;20055;-51
2022/03/12 08:34:50;;;;;;;3.67;2.00;;;24.90;25.80;;;;;;5063312;28;20024;-51
2022/03/12 08:37:16;;;;;;;3.35;1.88;;;24.90;25.80;;;;;;5060625;28;20016;-51
2022/03/12 08:39:41;;;;;;;3.90;2.10;;;25.00;25.80;;;;;;5062226;28;20104;-51
2022/03/12 08:42:08;;;;;;;4.20;2.00;;;25.00;25.80;;;;;;5063473;28;20023;-51
2022/03/12 08:44:34;;;;;;;3.90;2.08;;;25.00;25.70;;;;;;5062905;28;20028;-51
2022/03/12 08:47:00;;;;;;;3.90;1.73;;;25.00;25.70;;;;;;5044927;28;20029;-50
2022/03/12 08:49:27;;;;;;;4.60;2.38;;;25.10;25.70;;;;;;5055166;28;20079;-50
2022/03/12 08:51:53;;;;;;;2.95;1.65;;;25.00;25.80;;;;;;5061186;28;20032;-51
2022/03/12 08:54:19;;;;;;;6.90;2.55;;;25.10;25.90;;;;;;5062661;28;20043;-50
2022/03/12 08:56:45;;;;;;;7.90;2.97;;;25.10;26.00;;;;;;5062654;28;20269;-52
2022/03/12 08:59:11;;;;;;;8.18;3.17;;;25.10;26.00;;;;;;5061511;28;20047;-49
2022/03/12 09:01:36;;;;;;;10.60;3.50;;;25.10;26.00;;;;;;5061370;28;20033;-50
2022/03/12 09:04:02;;;;;;;7.25;3.38;;;25.20;25.90;;;;;;5059646;28;20051;-50
2022/03/12 09:06:31;;;;;;;12.30;4.05;;;25.20;25.70;;;;;;5058100;28;20107;-49
2022/03/12 09:08:58;;;;;;;8.23;3.47;;;25.20;25.60;;;;;;5060204;28;21006;-50
2022/03/12 09:11:25;;;;;;;12.40;4.55;;;25.20;25.30;;;;;;5060074;28;20053;-49
2022/03/12 09:13:50;;;;;;;15.27;3.95;;;25.20;26.00;;;;;;5060869;28;20593;-51
2022/03/12 09:16:16;;;;;;;14.32;4.43;;;25.20;25.40;;;;;;5059978;28;20021;-50
2022/03/12 09:18:46;;;;;;;10.30;3.28;;;25.20;25.50;;;;;;5060469;28;20063;-50
2022/03/12 09:21:12;;;;;;;11.30;3.92;;;25.20;25.60;;;;;;5060534;28;20280;-51
2022/03/12 09:23:38;;;;;;;8.70;3.13;;;25.20;26.00;;;;;;5060599;28;20089;-51
2022/03/12 09:26:05;;;;;;;14.77;4.22;;;25.20;26.30;;;;;;5062494;28;20025;-51
2022/03/12 09:28:31;;;;;;;19.35;4.72;;;25.20;26.60;;;;;;5060510;28;20725;-51
2022/03/12 09:30:57;;;;;;;17.52;4.43;;;25.20;26.50;;;;;;5062619;28;20547;-51
2022/03/12 09:33:23;;;;;;;12.35;3.80;;;25.30;27.00;;;;;;5060929;28;20028;-51
2022/03/12 09:35:54;;;;;;;9.20;3.83;;;25.30;27.20;;;;;;5061920;28;20538;-51
2022/03/12 09:38:20;;;;;;;13.73;4.35;;;25.30;27.40;;;;;;5061970;28;20055;-51
2022/03/12 09:40:46;;;;;;;15.18;5.32;;;25.30;27.90;;;;;;5061622;28;20671;-50
2022/03/12 09:43:13;;;;;;;8.68;3.90;;;25.40;28.10;;;;;;5059553;28;20024;-51
2022/03/12 09:45:38;;;;;;;8.32;4.00;;;25.40;27.30;;;;;;5054362;28;20025;-51
2022/03/12 09:48:05;;;;;;;11.10;4.25;;;25.40;26.70;;;;;;5060744;28;20036;-51
2022/03/12 09:50:31;;;;;;;8.95;3.28;;;25.40;26.60;;;;;;5059817;28;20103;-51
2022/03/12 09:52:57;;;;;;;7.47;3.30;;;25.40;26.60;;;;;;5060083;28;20028;-49
2022/03/12 09:55:23;;;;;;;10.13;3.22;;;25.40;26.70;;;;;;5062800;28;20104;-51
2022/03/12 09:57:49;;;;;;;6.68;3.15;;;25.40;26.70;;;;;;5064427;28;20081;-51
2022/03/12 10:00:17;;;;;;;9.70;3.60;;;25.40;26.50;;;;;;5065834;28;20100;-52
2022/03/12 10:02:43;;;;;;;7.60;3.25;;;25.40;26.40;;;;;;5064186;28;20024;-50
2022/03/12 10:05:13;;;;;;;6.80;3.35;;;25.40;26.30;;;;;;5065720;28;20104;-50
2022/03/12 10:07:41;;;;;;;6.10;3.60;;;25.40;26.20;;;;;;5065091;28;20021;-50
2022/03/12 10:10:15;;;;;;;6.68;2.78;;;25.40;26.40;;;;;;5065540;28;20024;-50
2022/03/12 10:12:45;;;;;;;7.38;3.70;;;25.40;26.20;;;;;;5066878;28;20032;-51
2022/03/12 10:15:12;;;;;;;19.40;8.27;;;25.40;26.00;;;;;;5066826;28;20523;-50
2022/03/12 10:17:39;;;;;;;29.88;13.45;;;25.40;26.10;;;;;;5066811;28;20029;-51
2022/03/12 10:20:08;;;;;;;37.30;16.73;;;25.40;26.10;;;;;;5066669;28;20036;-50
2022/03/12 10:22:34;;;;;;;33.58;16.63;;;25.40;26.40;;;;;;5056607;28;20033;-51
2022/03/12 10:25:00;;;;;;;52.72;23.13;;;25.40;26.40;;;;;;5059423;28;20140;-51
2022/03/12 10:27:26;;;;;;;61.42;29.90;;;25.40;26.20;;;;;;5064506;28;20033;-52
2022/03/12 10:29:52;;;;;;;54.05;28.45;;;25.50;26.40;;;;;;5063144;28;20032;-51
2022/03/12 10:32:25;;;;;;;60.05;31.08;;;25.50;26.10;;;;;;5063778;28;20024;-51
2022/03/12 10:34:53;;;;;;;67.93;34.10;;;25.50;26.10;;;;;;5065678;28;20066;-51
2022/03/12 10:37:31;;;;;;;60.95;32.42;;;25.50;26.20;;;;;;5047792;28;20041;-52
2022/03/12 10:40:18;;;;;;;60.42;33.40;;;25.50;26.20;;;;;;5046358;28;20119;-50
2022/03/12 10:42:56;;;;;;;60.40;31.58;;;25.50;26.60;;;;;;5061597;28;20086;-51
2022/03/12 10:45:31;;;;;;;59.30;31.77;;;25.60;26.50;;;;;;5065596;28;20502;-51
2022/03/12 10:47:59;;;;;;;53.65;29.05;;;25.60;26.40;;;;;;5063779;28;20052;-51
2022/03/12 10:50:29;;;;;;;51.28;28.13;;;25.60;26.00;;;;;;5063318;28;20037;-51
2022/03/12 10:52:58;;;;;;;40.03;22.90;;;25.60;25.90;;;;;;5065982;28;20024;-52
2022/03/12 10:55:29;;;;;;;42.15;22.27;;;25.60;25.70;;;;;;5061761;28;20035;-51
2022/03/12 10:58:00;;;;;;;38.63;21.15;;;25.60;25.60;;;;;;5065231;28;20016;-51
2022/03/12 11:00:27;;;;;;;37.17;21.00;;;25.60;25.60;;;;;;5062364;28;20087;-52
2022/03/12 11:02:58;;;;;;;33.05;19.10;;;25.60;25.60;;;;;;5066583;28;20701;-51
2022/03/12 11:05:29;;;;;;;35.20;19.20;;;25.70;25.60;;;;;;5064455;28;20040;-52
2022/03/12 11:08:17;;;;;;;27.70;16.20;;;25.70;25.70;;;;;;5062611;28;20028;-51
2022/03/12 11:11:10;;;;;;;26.90;15.30;;;25.70;25.80;;;;;;5048653;28;20488;-51
2022/03/12 11:13:44;;;;;;;26.63;14.82;;;25.70;25.90;;;;;;5056736;28;20048;-51
2022/03/12 11:16:20;;;;;;;23.80;14.35;;;25.70;26.00;;;;;;5063929;28;20025;-51
2022/03/12 11:18:56;;;;;;;22.88;13.50;;;25.70;26.00;;;;;;5051704;28;20051;-51
2022/03/12 11:21:42;;;;;;;23.02;14.20;;;25.70;26.20;;;;;;5064270;28;20037;-51
2022/03/12 11:24:17;;;;;;;22.98;13.68;;;25.70;26.70;;;;;;5062280;28;20063;-50
2022/03/12 11:26:56;;;;;;;19.38;11.40;;;25.70;26.50;;;;;;5063991;28;20083;-50
2022/03/12 11:29:24;;;;;;;20.55;11.93;;;25.80;26.40;;;;;;5062031;28;20040;-50
2022/03/12 11:31:52;;;;;;;23.10;11.50;;;25.80;26.40;;;;;;5063809;28;20082;-51
2022/03/12 11:34:24;;;;;;;16.90;10.30;;;25.80;26.40;;;;;;5064118;28;20044;-51
2022/03/12 11:37:13;;;;;;;17.17;10.57;;;25.80;26.50;;;;;;5063641;28;20024;-51
2022/03/12 11:39:42;;;;;;;19.55;10.82;;;25.80;26.50;;;;;;5063265;28;20653;-50
2022/03/12 11:42:12;;;;;;;16.08;9.38;;;25.80;26.40;;;;;;5064385;28;20099;-50
2022/03/12 11:44:39;;;;;;;16.42;10.45;;;25.80;26.50;;;;;;5064004;28;20020;-52
2022/03/12 11:47:06;;;;;;;17.92;10.10;;;25.80;26.50;;;;;;5064630;28;20388;-52
2022/03/12 11:49:32;;;;;;;16.42;10.95;;;25.70;26.50;;;;;;5062507;28;20020;-52
2022/03/12 11:51:59;;;;;;;17.88;9.43;;;25.70;26.50;;;;;;5063054;28;20024;-51
2022/03/12 11:54:25;;;;;;;16.08;9.55;;;25.70;26.50;;;;;;5064158;28;20032;-51
2022/03/12 11:56:51;;;;;;;14.98;9.43;;;25.70;26.50;;;;;;5064462;28;20036;-53
2022/03/12 11:59:19;;;;;;;16.58;8.82;;;25.70;26.40;;;;;;5064470;28;20025;-52
2022/03/12 12:02:03;;;;;;;16.88;9.55;;;25.70;26.40;;;;;;5064405;28;20020;-52
2022/03/12 12:04:35;;;;;;;14.00;7.93;;;25.70;26.30;;;;;;5062365;28;20460;-51
2022/03/12 12:07:01;;;;;;;12.93;8.48;;;25.70;26.30;;;;;;5064336;28;20028;-51
2022/03/12 12:09:29;;;;;;;11.73;7.50;;;25.80;26.30;;;;;;5063654;28;20020;-52
2022/03/12 12:11:55;;;;;;;13.77;8.00;;;25.70;26.30;;;;;;5064516;28;20042;-52
2022/03/12 12:14:21;;;;;;;10.57;7.00;;;25.80;26.20;;;;;;5063670;28;20634;-50
2022/03/12 12:16:53;;;;;;;12.40;6.45;;;25.80;26.20;;;;;;5061576;28;20025;-50
2022/03/12 12:19:19;;;;;;;10.02;6.82;;;25.80;26.20;;;;;;5063403;28;20041;-49
2022/03/12 12:21:45;;;;;;;10.88;6.30;;;25.80;26.20;;;;;;5064099;28;20009;-50
2022/03/12 12:24:28;;;;;;;11.73;5.97;;;25.80;26.20;;;;;;5064262;28;20090;-49
2022/03/12 12:27:03;;;;;;;10.73;6.20;;;25.80;26.20;;;;;;5063288;28;20028;-49
2022/03/12 12:29:45;;;;;;;12.57;6.82;;;25.80;26.30;;;;;;5061941;28;20029;-51
2022/03/12 12:32:13;;;;;;;9.95;5.65;;;25.90;26.30;;;;;;5063450;28;20048;-50
2022/03/12 12:35:04;;;;;;;10.48;6.28;;;25.90;26.20;;;;;;5062754;28;20074;-50
2022/03/12 12:37:40;;;;;;;9.57;5.20;;;25.90;26.20;;;;;;5063227;28;20024;-50
2022/03/12 12:40:19;;;;;;;11.00;6.13;;;26.00;26.60;;;;;;5059003;28;20020;-49
2022/03/12 12:42:45;;;;;;;11.20;6.35;;;26.00;26.30;;;;;;5063111;28;20028;-50
2022/03/12 12:45:16;;;;;;;12.25;5.80;;;26.00;25.80;;;;;;5063218;28;20059;-50
2022/03/12 12:47:42;;;;;;;10.55;5.70;;;26.00;25.70;;;;;;5063619;28;20096;-49
2022/03/12 12:50:25;;;;;;;10.45;5.82;;;26.10;25.70;;;;;;5063191;28;20108;-49